createdAt,value
2019-03-20T00:01:50.492Z,64.70
2019-03-20T00:04:21.172Z,66.00
2019-03-20T00:06:51.939Z,65.70
2019-03-20T00:12:10.276Z,65.80
2019-03-20T00:14:41.014Z,65.70
2019-03-20T00:17:11.560Z,65.70
2019-03-20T00:19:42.271Z,66.10
2019-03-20T00:22:12.758Z,67.10
2019-03-20T00:24:43.405Z,68.00
2019-03-20T00:27:14.373Z,68.10
2019-03-20T00:29:44.978Z,67.40
2019-03-20T00:32:15.592Z,66.70
2019-03-20T00:34:46.384Z,66.40
2019-03-20T00:37:16.807Z,66.10
2019-03-20T00:39:47.472Z,66.70
2019-03-20T00:42:18.278Z,66.10
2019-03-20T00:44:48.989Z,66.00
2019-03-20T00:47:19.615Z,65.60
2019-03-20T00:49:50.372Z,65.30
2019-03-20T00:52:20.799Z,65.10
2019-03-20T00:54:51.552Z,65.10
2019-03-20T00:57:22.282Z,64.70
2019-03-20T00:59:53.067Z,64.30
2019-03-20T01:02:23.910Z,64.50
2019-03-20T01:04:54.779Z,64.30
2019-03-20T01:07:25.817Z,64.30
2019-03-20T01:09:57.107Z,64.10
2019-03-20T01:12:27.907Z,64.00
2019-03-20T01:14:58.530Z,63.90
2019-03-20T01:17:29.178Z,63.80
2019-03-20T01:20:00.015Z,63.30
2019-03-20T01:22:30.913Z,63.30
2019-03-20T01:25:02.537Z,63.00
2019-03-20T01:27:33.232Z,63.00
2019-03-20T01:30:04.474Z,62.80
2019-03-20T01:32:35.166Z,62.40
2019-03-20T01:35:06.087Z,62.60
2019-03-20T01:37:37.581Z,62.20
2019-03-20T01:40:09.500Z,62.10
2019-03-20T01:42:40.167Z,62.40
2019-03-20T01:45:11.924Z,61.70
2019-03-20T01:47:42.563Z,61.50
2019-03-20T01:50:13.465Z,61.50
2019-03-20T01:52:44.176Z,61.30
2019-03-20T01:55:15.644Z,61.00
2019-03-20T01:57:46.371Z,60.90
2019-03-20T02:00:17.416Z,61.60
2019-03-20T02:02:47.973Z,60.60
2019-03-20T02:05:18.813Z,60.20
2019-03-20T02:07:49.514Z,60.00
2019-03-20T02:10:20.422Z,59.70
2019-03-20T02:12:51.268Z,59.50
2019-03-20T02:15:22.100Z,59.20
2019-03-20T02:17:53.547Z,59.00
2019-03-20T02:20:29.738Z,58.90
2019-03-20T02:23:00.417Z,58.80
2019-03-20T02:25:32.386Z,58.80
2019-03-20T02:28:03.288Z,58.80
2019-03-20T02:30:33.880Z,58.20
2019-03-20T02:33:04.428Z,57.60
2019-03-20T02:35:50.286Z,57.40
2019-03-20T02:38:07.272Z,57.30
2019-03-20T02:40:38.147Z,57.00
2019-03-20T02:43:08.691Z,56.80
2019-03-20T02:45:39.633Z,56.90
2019-03-20T02:48:10.214Z,57.00
2019-03-20T02:50:43.735Z,56.90
2019-03-20T02:53:22.208Z,56.50
2019-03-20T02:55:54.045Z,56.30
2019-03-20T02:58:24.751Z,55.90
2019-03-20T03:00:55.482Z,55.90
2019-03-20T03:03:26.066Z,55.90
2019-03-20T03:06:06.718Z,55.20
2019-03-20T03:08:31.416Z,54.90
2019-03-20T03:11:01.986Z,55.10
2019-03-20T03:13:32.827Z,55.10
2019-03-20T03:16:03.385Z,55.20
2019-03-20T03:18:33.959Z,55.40
2019-03-20T03:21:04.702Z,55.50
2019-03-20T03:23:35.456Z,55.00
2019-03-20T03:26:06.214Z,55.00
2019-03-20T03:28:36.926Z,54.90
2019-03-20T03:31:07.680Z,54.90
2019-03-20T03:33:38.394Z,55.00
2019-03-20T03:36:20.547Z,55.00
2019-03-20T03:38:41.185Z,54.80
2019-03-20T03:41:11.745Z,54.50
2019-03-20T03:43:42.384Z,54.50
2019-03-20T03:46:13.062Z,54.20
2019-03-20T03:48:43.654Z,53.40
2019-03-20T03:51:14.341Z,53.50
2019-03-20T03:53:44.960Z,53.10
2019-03-20T03:56:15.969Z,52.80
2019-03-20T03:58:46.726Z,52.30
2019-03-20T04:01:17.527Z,52.10
2019-03-20T04:03:48.093Z,52.30
2019-03-20T04:06:18.653Z,51.90
2019-03-20T04:08:49.595Z,50.80
2019-03-20T04:11:20.189Z,50.40
2019-03-20T04:13:50.885Z,50.90
2019-03-20T04:16:21.814Z,50.20
2019-03-20T04:18:52.668Z,50.20
2019-03-20T04:21:23.305Z,50.60
2019-03-20T04:23:53.845Z,50.30
2019-03-20T04:26:24.590Z,49.50
2019-03-20T04:28:55.390Z,50.00
2019-03-20T04:31:26.868Z,49.10
2019-03-20T04:33:57.763Z,49.20
2019-03-20T04:36:28.990Z,48.80
2019-03-20T04:39:02.774Z,48.10
2019-03-20T04:41:33.782Z,48.50
2019-03-20T04:44:04.584Z,48.70
2019-03-20T04:46:36.653Z,47.40
2019-03-20T04:49:07.443Z,47.30
2019-03-20T04:51:38.797Z,47.80
2019-03-20T04:54:09.582Z,47.50
2019-03-20T04:56:40.176Z,45.80
2019-03-20T04:59:10.798Z,45.50
2019-03-20T05:01:41.624Z,44.80
2019-03-20T05:04:12.127Z,45.60
2019-03-20T05:06:42.908Z,45.00
2019-03-20T05:09:14.694Z,45.10
2019-03-20T05:11:45.992Z,44.60
2019-03-20T05:14:16.766Z,44.40
2019-03-20T05:16:47.666Z,44.70
2019-03-20T05:19:19.646Z,45.10
2019-03-20T05:21:50.591Z,45.50
2019-03-20T05:24:21.132Z,44.80
2019-03-20T05:26:52.182Z,45.40
2019-03-20T05:29:22.691Z,45.80
2019-03-20T05:31:53.641Z,46.40
2019-03-20T05:34:24.439Z,46.90
2019-03-20T05:36:55.271Z,46.60
2019-03-20T05:39:26.841Z,46.00
2019-03-20T05:41:57.697Z,46.40
2019-03-20T05:44:28.216Z,46.60
2019-03-20T05:46:58.829Z,46.10
2019-03-20T05:49:29.680Z,45.60
2019-03-20T05:52:15.992Z,45.20
2019-03-20T05:54:47.035Z,44.80
2019-03-20T05:57:17.860Z,44.00
2019-03-20T05:59:49.040Z,44.80
2019-03-20T06:02:19.754Z,43.60
2019-03-20T06:04:50.358Z,43.90
2019-03-20T06:07:22.110Z,44.40
2019-03-20T06:09:53.003Z,44.50
2019-03-20T06:12:23.887Z,44.40
2019-03-20T06:14:54.511Z,44.00
2019-03-20T06:17:25.406Z,43.70
2019-03-20T06:19:56.270Z,44.30
2019-03-20T06:22:26.908Z,43.00
2019-03-20T06:24:57.950Z,42.90
2019-03-20T06:27:28.769Z,42.80
2019-03-20T06:30:04.218Z,42.80
2019-03-20T06:32:35.102Z,42.70
2019-03-20T06:35:07.025Z,43.20
2019-03-20T06:37:37.737Z,42.50
2019-03-20T06:40:11.074Z,42.50
2019-03-20T06:42:41.684Z,42.30
2019-03-20T06:45:14.761Z,42.70
2019-03-20T06:47:45.538Z,41.70
2019-03-20T06:50:17.561Z,42.20
2019-03-20T06:52:48.286Z,43.00
2019-03-20T06:55:19.014Z,43.10
2019-03-20T06:57:49.614Z,43.40
2019-03-20T07:00:22.968Z,43.50
2019-03-20T07:02:54.021Z,42.90
2019-03-20T07:05:27.298Z,42.70
2019-03-20T07:07:58.175Z,42.10
2019-03-20T07:10:31.586Z,42.60
2019-03-20T07:13:02.302Z,42.50
2019-03-20T07:15:33.162Z,42.90
2019-03-20T07:18:03.925Z,43.00
2019-03-20T07:20:34.687Z,42.80
2019-03-20T07:23:05.343Z,42.80
2019-03-20T07:25:35.941Z,42.40
2019-03-20T07:28:07.564Z,42.50
2019-03-20T07:30:38.270Z,42.40
2019-03-20T07:33:09.592Z,42.40
2019-03-20T07:35:40.419Z,42.50
2019-03-20T07:38:14.833Z,42.60
2019-03-20T07:40:45.681Z,41.80
2019-03-20T07:43:16.561Z,41.00
2019-03-20T07:45:48.279Z,40.50
2019-03-20T07:48:22.540Z,40.30
2019-03-20T07:50:51.520Z,41.60
2019-03-20T07:53:22.307Z,40.30
2019-03-20T07:55:52.941Z,40.80
2019-03-20T07:58:23.629Z,41.10
2019-03-20T08:00:54.560Z,41.20
2019-03-20T08:03:25.674Z,38.80
2019-03-20T08:05:56.426Z,39.50
2019-03-20T08:08:27.159Z,38.60
2019-03-20T08:10:57.838Z,38.40
2019-03-20T08:13:32.347Z,39.00
2019-03-20T08:16:04.052Z,38.20
2019-03-20T08:18:35.356Z,38.10
2019-03-20T08:21:06.119Z,38.20
2019-03-20T08:23:36.844Z,37.00
2019-03-20T08:26:07.725Z,37.10
2019-03-20T08:28:38.802Z,37.40
2019-03-20T08:31:09.452Z,36.60
2019-03-20T08:33:39.974Z,38.00
2019-03-20T08:36:10.915Z,37.00
2019-03-20T08:38:41.903Z,36.40
2019-03-20T08:41:12.914Z,37.00
2019-03-20T08:43:45.624Z,35.70
2019-03-20T08:46:16.182Z,36.10
2019-03-20T08:48:48.386Z,36.60
2019-03-20T08:51:19.222Z,36.80
2019-03-20T08:53:49.924Z,38.20
2019-03-20T08:59:09.030Z,37.80
2019-03-20T09:01:42.895Z,37.30
2019-03-20T09:04:14.564Z,35.70
2019-03-20T09:06:45.467Z,37.40
2019-03-20T09:09:15.895Z,37.40
2019-03-20T09:11:46.756Z,37.40
2019-03-20T09:14:17.505Z,37.70
2019-03-20T09:16:48.507Z,37.80
2019-03-20T09:19:19.165Z,38.50
2019-03-20T09:21:49.801Z,37.50
2019-03-20T09:24:20.402Z,37.90
2019-03-20T09:26:51.045Z,39.00
2019-03-20T09:29:21.963Z,36.90
2019-03-20T09:31:52.721Z,37.30
2019-03-20T09:34:23.596Z,37.60
2019-03-20T09:36:54.575Z,39.10
2019-03-20T09:39:25.266Z,37.50
2019-03-20T09:41:55.699Z,38.40
2019-03-20T09:44:26.559Z,38.60
2019-03-20T09:46:57.546Z,39.00
2019-03-20T09:49:28.380Z,38.80
2019-03-20T09:51:58.996Z,38.40
2019-03-20T09:54:30.870Z,37.50
2019-03-20T09:57:01.319Z,38.40
2019-03-20T09:59:32.064Z,38.40
2019-03-20T10:02:03.004Z,38.60
2019-03-20T10:04:34.226Z,39.10
2019-03-20T10:07:05.428Z,39.40
2019-03-20T10:09:36.736Z,39.00
2019-03-20T10:12:07.611Z,39.00
2019-03-20T10:14:38.555Z,39.50
2019-03-20T10:17:09.318Z,39.10
2019-03-20T10:19:39.916Z,38.80
2019-03-20T10:22:10.816Z,39.50
2019-03-20T10:24:41.356Z,39.80
2019-03-20T10:27:12.069Z,39.70
2019-03-20T10:29:42.668Z,40.00
2019-03-20T10:32:13.276Z,40.20
2019-03-20T10:34:43.991Z,40.50
2019-03-20T10:37:14.709Z,40.60
2019-03-20T10:39:45.653Z,40.80
2019-03-20T10:42:16.285Z,41.10
2019-03-20T10:44:46.984Z,41.20
2019-03-20T10:47:17.606Z,41.40
2019-03-20T10:49:48.136Z,41.60
2019-03-20T10:52:18.732Z,41.70
2019-03-20T10:54:49.382Z,41.80
2019-03-20T10:57:20.350Z,42.00
2019-03-20T10:59:53.760Z,42.10
2019-03-20T11:02:24.713Z,42.30
2019-03-20T11:04:55.346Z,42.50
2019-03-20T11:07:25.996Z,42.50
2019-03-20T11:09:56.524Z,42.70
2019-03-20T11:12:27.214Z,42.80
2019-03-20T11:14:58.146Z,42.90
2019-03-20T11:17:28.677Z,43.00
2019-03-20T11:19:59.204Z,43.20
2019-03-20T11:22:29.933Z,43.50
2019-03-20T11:25:00.465Z,43.70
2019-03-20T11:27:33.199Z,43.90
2019-03-20T11:30:02.976Z,44.10
2019-03-20T11:32:33.731Z,44.30
2019-03-20T11:35:04.448Z,44.60
2019-03-20T11:37:35.112Z,44.80
2019-03-20T11:40:08.194Z,45.10
2019-03-20T11:42:40.740Z,45.20
2019-03-20T11:45:13.028Z,45.40
2019-03-20T11:47:43.626Z,45.60
2019-03-20T11:50:16.755Z,45.60
2019-03-20T11:52:47.401Z,45.70
2019-03-20T11:55:18.073Z,45.80
2019-03-20T11:57:48.782Z,45.80
2019-03-20T12:00:22.335Z,45.90
2019-03-20T12:02:52.830Z,46.00
2019-03-20T12:05:23.456Z,46.20
2019-03-20T12:07:54.704Z,46.20
2019-03-20T12:10:27.154Z,46.40
2019-03-20T12:12:57.873Z,46.50
2019-03-20T12:15:28.598Z,46.70
2019-03-20T12:17:59.384Z,46.90
2019-03-20T12:20:30.100Z,47.00
2019-03-20T12:23:00.747Z,47.50
2019-03-20T12:25:33.835Z,47.50
2019-03-20T12:28:04.507Z,47.30
2019-03-20T12:30:36.394Z,47.40
2019-03-20T12:33:07.578Z,47.70
2019-03-20T12:35:40.688Z,47.80
2019-03-20T12:38:14.828Z,47.90
2019-03-20T12:40:43.903Z,48.00
2019-03-20T12:43:14.515Z,48.10
2019-03-20T12:45:45.132Z,48.10
2019-03-20T12:48:18.025Z,48.10
2019-03-20T12:50:48.735Z,48.10
2019-03-20T12:53:21.938Z,48.20
2019-03-20T12:55:52.878Z,48.70
2019-03-20T12:58:23.373Z,48.90
2019-03-20T13:00:56.377Z,48.90
2019-03-20T13:03:26.835Z,48.90
2019-03-20T13:05:57.604Z,49.00
2019-03-20T13:08:28.229Z,49.10
2019-03-20T13:10:58.988Z,49.30
2019-03-20T13:13:29.554Z,49.40
2019-03-20T13:16:00.160Z,49.50
2019-03-20T13:18:30.847Z,49.40
2019-03-20T13:21:01.482Z,49.60
2019-03-20T13:23:34.490Z,49.50
2019-03-20T13:26:05.169Z,49.80
2019-03-20T13:28:36.086Z,50.80
2019-03-20T13:31:09.373Z,50.30
2019-03-20T13:33:39.825Z,51.30
2019-03-20T13:36:10.462Z,50.40
2019-03-20T13:38:41.204Z,50.30
2019-03-20T13:41:12.086Z,50.40
2019-03-20T13:43:43.577Z,50.50
2019-03-20T13:46:14.340Z,50.60
2019-03-20T13:48:45.181Z,50.40
2019-03-20T13:51:15.807Z,50.30
2019-03-20T13:53:46.426Z,50.10
2019-03-20T13:56:17.163Z,50.60
2019-03-20T13:58:47.902Z,50.70
2019-03-20T14:01:18.564Z,51.20
2019-03-20T14:03:49.548Z,50.90
2019-03-20T14:06:20.217Z,51.20
2019-03-20T14:08:50.792Z,51.00
2019-03-20T14:11:21.398Z,51.20
2019-03-20T14:13:51.894Z,51.60
2019-03-20T14:16:22.551Z,51.10
2019-03-20T14:18:53.122Z,51.80
2019-03-20T14:21:23.789Z,51.40
2019-03-20T14:23:54.536Z,51.20
2019-03-20T14:26:25.305Z,51.50
2019-03-20T14:28:56.057Z,51.50
2019-03-20T14:31:26.445Z,51.40
2019-03-20T14:33:57.145Z,51.20
2019-03-20T14:36:27.780Z,51.10
2019-03-20T14:38:58.828Z,51.10
2019-03-20T14:41:29.237Z,51.30
2019-03-20T14:44:00.017Z,51.60
2019-03-20T14:46:30.665Z,51.50
2019-03-20T14:49:01.255Z,52.10
2019-03-20T14:51:31.867Z,52.10
2019-03-20T14:54:02.317Z,52.30
2019-03-20T14:56:32.915Z,52.10
2019-03-20T14:59:03.569Z,52.40
2019-03-20T15:01:34.092Z,51.90
2019-03-20T15:04:04.661Z,51.80
2019-03-20T15:06:35.387Z,51.90
2019-03-20T15:09:07.262Z,52.00
2019-03-20T15:11:37.869Z,52.80
2019-03-20T15:14:08.335Z,53.00
2019-03-20T15:16:39.066Z,53.00
2019-03-20T15:19:09.574Z,53.00
2019-03-20T15:21:40.196Z,53.00
2019-03-20T15:24:11.577Z,53.00
2019-03-20T15:26:42.276Z,53.60
2019-03-20T15:29:12.826Z,53.60
2019-03-20T15:31:43.228Z,53.50
2019-03-20T15:34:14.007Z,54.00
2019-03-20T15:36:44.644Z,53.80
2019-03-20T15:39:15.417Z,53.50
2019-03-20T15:41:46.209Z,53.90
2019-03-20T15:44:16.905Z,53.70
2019-03-20T15:46:47.576Z,53.40
2019-03-20T15:49:18.150Z,53.00
2019-03-20T15:51:49.059Z,52.90
2019-03-20T15:54:19.659Z,53.00
2019-03-20T15:56:50.307Z,53.00
2019-03-20T15:59:20.894Z,53.30
2019-03-20T16:01:51.292Z,54.00
2019-03-20T16:04:21.623Z,54.90
2019-03-20T16:06:52.379Z,54.90
2019-03-20T16:09:22.949Z,54.20
2019-03-20T16:11:53.732Z,54.20
2019-03-20T16:14:24.555Z,54.00
2019-03-20T16:16:55.056Z,54.00
2019-03-20T16:19:25.788Z,53.90
2019-03-20T16:21:56.346Z,53.50
2019-03-20T16:24:26.758Z,53.50
2019-03-20T16:26:57.479Z,53.40
2019-03-20T16:29:28.038Z,53.00
2019-03-20T16:31:58.693Z,52.80
2019-03-20T16:34:29.366Z,53.30
2019-03-20T16:36:59.979Z,54.00
2019-03-20T16:39:30.355Z,53.80
2019-03-20T16:42:01.026Z,55.60
2019-03-20T16:44:31.649Z,55.10
2019-03-20T16:47:02.058Z,55.50
2019-03-20T16:49:32.315Z,55.10
2019-03-20T16:52:03.004Z,55.30
2019-03-20T16:54:33.656Z,54.90
2019-03-20T16:57:04.281Z,55.10
2019-03-20T16:59:34.771Z,55.00
2019-03-20T17:02:05.403Z,55.00
2019-03-20T17:04:36.055Z,54.90
2019-03-20T17:07:06.765Z,54.80
2019-03-20T17:09:36.987Z,54.80
2019-03-20T17:12:07.526Z,54.60
2019-03-20T17:14:38.114Z,54.70
2019-03-20T17:17:08.899Z,55.20
2019-03-20T17:19:39.448Z,55.20
2019-03-20T17:22:10.039Z,55.40
2019-03-20T17:24:40.587Z,55.60
2019-03-20T17:27:11.208Z,55.60
2019-03-20T17:29:41.962Z,55.40
2019-03-20T17:32:12.629Z,55.20
2019-03-20T17:34:43.374Z,55.10
2019-03-20T17:37:14.061Z,55.00
2019-03-20T17:39:44.947Z,55.30
2019-03-20T17:42:15.672Z,55.10
2019-03-20T17:44:46.268Z,55.90
2019-03-20T17:47:16.959Z,56.30
2019-03-20T17:49:47.364Z,55.80
2019-03-20T17:52:18.388Z,55.70
2019-03-20T17:54:49.244Z,55.50
2019-03-20T17:57:19.960Z,55.70
2019-03-20T17:59:50.498Z,56.70
2019-03-20T18:02:24.271Z,57.80
2019-03-20T18:04:53.202Z,57.80
2019-03-20T18:07:23.830Z,57.30
2019-03-20T18:09:54.359Z,57.00
2019-03-20T18:12:24.890Z,56.90
2019-03-20T18:14:55.521Z,56.70
2019-03-20T18:17:26.301Z,56.70
2019-03-20T18:19:56.768Z,56.40
2019-03-20T18:22:27.376Z,56.30
2019-03-20T18:24:57.816Z,56.20
2019-03-20T18:27:28.276Z,56.40
2019-03-20T18:29:58.909Z,56.10
2019-03-20T18:32:29.808Z,56.70
2019-03-20T18:35:00.468Z,57.20
2019-03-20T18:37:31.143Z,58.90
2019-03-20T18:40:01.872Z,59.40
2019-03-20T18:42:32.666Z,59.40
2019-03-20T18:45:03.181Z,58.90
2019-03-20T18:47:34.160Z,59.00
2019-03-20T18:50:04.732Z,58.80
2019-03-20T18:52:35.421Z,58.60
2019-03-20T18:55:07.522Z,58.00
2019-03-20T18:57:38.140Z,58.40
2019-03-20T19:00:11.290Z,58.30
2019-03-20T19:02:41.877Z,58.40
2019-03-20T19:05:16.193Z,59.50
2019-03-20T19:07:46.865Z,59.30
2019-03-20T19:10:17.671Z,59.50
2019-03-20T19:12:48.512Z,59.40
2019-03-20T19:15:19.289Z,58.80
2019-03-20T19:17:49.754Z,58.60
2019-03-20T19:20:20.306Z,58.60
2019-03-20T19:22:50.850Z,59.50
2019-03-20T19:25:21.737Z,59.70
2019-03-20T19:27:52.337Z,59.20
2019-03-20T19:30:24.816Z,59.10
2019-03-20T19:32:55.600Z,59.20
2019-03-20T19:35:25.987Z,58.30
2019-03-20T19:37:56.612Z,58.60
2019-03-20T19:40:27.166Z,58.70
2019-03-20T19:42:58.028Z,58.50
2019-03-20T19:45:28.619Z,59.00
2019-03-20T19:47:59.247Z,59.20
2019-03-20T19:50:30.030Z,59.60
2019-03-20T19:53:00.634Z,60.10
2019-03-20T19:55:31.361Z,61.60
2019-03-20T19:58:01.982Z,61.20
2019-03-20T20:00:32.710Z,60.70
2019-03-20T20:03:03.322Z,61.90
2019-03-20T20:05:33.942Z,61.20
2019-03-20T20:08:04.600Z,62.30
2019-03-20T20:10:35.286Z,63.20
2019-03-20T20:13:05.948Z,61.90
2019-03-20T20:15:37.421Z,61.90
2019-03-20T20:18:07.977Z,62.70
2019-03-20T20:20:40.515Z,63.50
2019-03-20T20:23:11.016Z,63.00
2019-03-20T20:25:41.612Z,63.00
2019-03-20T20:28:11.950Z,62.60
2019-03-20T20:30:42.689Z,63.40
2019-03-20T20:33:13.385Z,62.60
2019-03-20T20:35:44.100Z,62.90
2019-03-20T20:38:14.733Z,62.50
2019-03-20T20:40:45.722Z,62.20
2019-03-20T20:43:17.179Z,62.20
2019-03-20T20:45:47.957Z,63.10
2019-03-20T20:48:18.617Z,63.30
2019-03-20T20:50:49.282Z,62.80
2019-03-20T20:53:20.123Z,62.20
2019-03-20T20:55:50.511Z,61.80
2019-03-20T20:58:21.063Z,61.50
2019-03-20T21:00:52.080Z,61.50
2019-03-20T21:03:22.762Z,61.80
2019-03-20T21:05:53.487Z,63.40
2019-03-20T21:08:24.131Z,63.40
2019-03-20T21:10:54.766Z,63.10
2019-03-20T21:13:27.948Z,62.90
2019-03-20T21:15:58.577Z,63.60
2019-03-20T21:18:31.812Z,63.30
2019-03-20T21:21:02.443Z,62.60
2019-03-20T21:23:35.536Z,61.80
2019-03-20T21:26:06.479Z,62.20
2019-03-20T21:28:39.511Z,62.10
2019-03-20T23:05:41.456Z,67.50
2019-03-20T23:08:14.762Z,67.90
2019-03-20T23:10:47.577Z,68.10
2019-03-20T23:13:19.176Z,68.40
2019-03-20T23:15:51.135Z,67.80
2019-03-20T23:18:21.941Z,66.70
2019-03-20T23:20:52.617Z,67.30
2019-03-20T23:23:23.398Z,67.30
2019-03-20T23:25:54.167Z,67.50
2019-03-20T23:28:24.960Z,68.10
2019-03-20T23:30:55.671Z,67.60
2019-03-20T23:33:26.334Z,67.50
2019-03-20T23:35:56.775Z,68.00
2019-03-20T23:38:28.693Z,68.30
2019-03-20T23:40:59.581Z,67.40
2019-03-20T23:43:30.326Z,67.30
2019-03-20T23:46:01.122Z,67.10
2019-03-20T23:48:34.412Z,67.70
2019-03-20T23:51:07.572Z,67.50
2019-03-20T23:53:38.837Z,68.00
2019-03-20T23:56:11.496Z,68.80
2019-03-20T23:58:41.309Z,67.80
